Time;durP1;ratioP1;P1;durP2;ratioP2;P2;SDS_P1;SDS_P2;PMS_P1;PMS_P2;Temp;Humidity;BMP_temperature;BMP_pressure;BME280_temperature;BME280_humidity;BME280_pressure;Samples;Min_cycle;Max_cycle;Signal;HPM_P1;HPM_P2
2022/04/14 00:01:13;;;;;;;15.85;7.45;;;;;;;3.72;79.36;99792.16;5050135;28;20181;-51
2022/04/14 00:03:42;;;;;;;4.70;2.30;;;;;;;3.70;79.80;99793.91;5052307;28;20713;-49
2022/04/14 00:06:08;;;;;;;7.38;3.15;;;;;;;3.66;79.60;99795.66;5033889;28;20203;-52
2022/04/14 00:08:33;;;;;;;4.35;2.88;;;;;;;3.59;79.67;99777.69;5061357;28;20041;-50
2022/04/14 00:10:59;;;;;;;5.60;2.75;;;;;;;3.64;80.06;99787.09;5050101;28;20507;-52
2022/04/14 00:13:25;;;;;;;4.85;3.05;;;;;;;3.64;79.87;99789.66;5047665;28;20040;-51
2022/04/14 00:15:51;;;;;;;4.93;3.70;;;;;;;3.62;79.98;99790.50;5046854;28;20044;-48
2022/04/14 00:18:17;;;;;;;4.55;3.58;;;;;;;3.61;80.19;99793.97;5047647;28;20041;-52
2022/04/14 00:20:42;;;;;;;5.00;4.47;;;;;;;3.60;80.26;99793.13;5047934;28;20033;-53
2022/04/14 00:23:08;;;;;;;4.90;3.22;;;;;;;3.52;80.18;99779.44;5048310;28;20045;-51
2022/04/14 00:25:34;;;;;;;4.80;3.70;;;;;;;3.60;80.30;99792.25;5047503;28;20509;-50
2022/04/14 00:28:00;;;;;;;4.57;3.30;;;;;;;3.50;80.42;99775.16;5047852;28;20051;-51
2022/04/14 00:30:26;;;;;;;4.35;2.60;;;;;;;3.44;80.80;99763.19;5047507;28;20045;-53
2022/04/14 00:32:52;;;;;;;6.40;2.85;;;;;;;3.42;80.69;99752.06;5047921;28;20052;-52
2022/04/14 00:35:18;;;;;;;4.03;2.60;;;;;;;3.56;80.79;99782.84;5028385;28;20060;-53
2022/04/14 00:37:43;;;;;;;5.53;2.83;;;;;;;3.43;80.70;99764.06;5051494;28;20037;-48
2022/04/14 00:40:10;;;;;;;3.83;2.45;;;;;;;3.51;80.70;99784.59;5052101;28;20098;-49
2022/04/14 00:42:37;;;;;;;5.10;2.70;;;;;;;3.49;81.04;99778.59;5052160;28;20036;-49
2022/04/14 00:45:03;;;;;;;3.85;1.80;;;;;;;3.52;81.09;99781.13;5052156;28;20519;-49
2022/04/14 00:47:29;;;;;;;5.20;1.90;;;;;;;3.48;81.22;99774.31;5051631;28;20114;-54
2022/04/14 00:49:55;;;;;;;5.28;2.28;;;;;;;3.51;81.27;99779.44;5050644;28;20547;-52
2022/04/14 00:52:22;;;;;;;4.65;1.88;;;;;;;3.47;81.24;99782.88;5052043;28;20132;-53
2022/04/14 00:54:48;;;;;;;4.65;2.22;;;;;;;3.44;81.54;99785.47;5052012;28;20536;-53
2022/04/14 00:57:14;;;;;;;4.55;2.45;;;;;;;3.44;81.26;99785.47;5051481;28;20096;-49
2022/04/14 00:59:41;;;;;;;6.05;2.00;;;;;;;3.26;81.48;99761.53;5049708;28;20049;-52
2022/04/14 01:02:08;;;;;;;4.43;1.88;;;;;;;3.37;81.77;99792.34;5066629;28;20496;-51
2022/04/14 01:04:35;;;;;;;2.88;1.70;;;;;;;3.37;81.86;99785.50;5051390;28;20485;-49
2022/04/14 01:07:01;;;;;;;3.08;2.00;;;;;;;3.35;82.03;99781.19;5050859;28;20045;-49
2022/04/14 01:09:28;;;;;;;3.53;1.92;;;;;;;3.37;81.78;99793.19;5050365;28;20766;-49
2022/04/14 01:11:55;;;;;;;4.53;2.30;;;;;;;3.35;82.01;99791.47;5066738;28;20049;-53
2022/04/14 01:14:30;;;;;;;5.18;1.85;;;;;;;3.34;82.05;99793.22;5053029;28;20060;-50
2022/04/14 01:16:57;;;;;;;3.10;1.63;;;;;;;3.31;81.91;99793.22;5061149;28;20097;-47
2022/04/14 01:19:23;;;;;;;4.55;1.80;;;;;;;3.23;82.05;99784.69;5070022;28;20571;-52
2022/04/14 01:22:15;;;;;;;4.03;1.55;;;;;;;3.33;82.32;99791.50;5041379;28;20128;-52
2022/04/14 01:24:41;;;;;;;3.15;1.90;;;;;;;3.22;82.13;99780.41;5037873;28;20033;-51
2022/04/14 01:27:07;;;;;;;2.28;1.70;;;;;;;3.21;82.32;99778.69;5052208;28;20044;-50
2022/04/14 01:29:33;;;;;;;4.55;1.90;;;;;;;3.18;82.39;99780.44;5051464;28;20045;-51
2022/04/14 01:32:01;;;;;;;4.82;2.58;;;;;;;3.09;82.71;99755.59;5052665;28;20049;-53
2022/04/14 01:34:30;;;;;;;3.10;1.77;;;;;;;3.33;82.22;99790.66;5067670;28;20041;-51
2022/04/14 01:37:00;;;;;;;3.05;1.70;;;;;;;3.22;82.21;99766.69;5055504;28;20063;-51
2022/04/14 01:39:27;;;;;;;3.88;1.50;;;;;;;3.32;82.39;99788.94;5067464;28;20086;-50
2022/04/14 01:41:53;;;;;;;5.65;1.70;;;;;;;3.30;82.39;99782.94;5051935;28;20041;-53
2022/04/14 01:44:18;;;;;;;5.97;1.70;;;;;;;3.30;82.51;99785.50;5052247;28;20037;-54
2022/04/14 01:46:44;;;;;;;3.45;2.13;;;;;;;3.31;82.47;99788.06;5065546;28;20428;-52
2022/04/14 01:49:10;;;;;;;3.50;1.90;;;;;;;3.29;82.37;99788.94;5066869;28;20148;-51
2022/04/14 01:51:36;;;;;;;2.20;1.67;;;;;;;3.26;82.46;99787.25;5073179;28;20040;-49
2022/04/14 01:54:03;;;;;;;3.63;1.67;;;;;;;3.26;82.68;99794.94;5070439;28;20036;-52
2022/04/14 01:56:28;;;;;;;2.70;1.65;;;;;;;3.05;83.00;99758.19;5069389;28;20040;-51
2022/04/14 01:58:54;;;;;;;3.45;1.80;;;;;;;3.22;82.96;99793.25;5049884;28;20530;-51
2022/04/14 02:01:20;;;;;;;5.07;2.90;;;;;;;3.22;82.92;99792.41;5048823;28;20547;-51
2022/04/14 02:03:46;;;;;;;4.30;2.30;;;;;;;3.19;82.79;99806.09;5062829;28;20119;-53
2022/04/14 02:06:12;;;;;;;2.95;1.88;;;;;;;3.18;82.90;99800.97;5049519;28;20099;-50
2022/04/14 02:08:38;;;;;;;3.33;1.80;;;;;;;3.16;82.80;99795.84;5048691;28;20048;-50
2022/04/14 02:11:04;;;;;;;3.33;2.08;;;;;;;3.18;82.92;99808.69;5050767;28;20040;-48
2022/04/14 02:13:31;;;;;;;4.57;2.20;;;;;;;3.09;82.98;99788.16;5049155;28;20414;-49
2022/04/14 02:15:57;;;;;;;5.00;2.53;;;;;;;3.21;82.98;99801.81;5062699;28;20065;-51
2022/04/14 02:18:23;;;;;;;4.15;2.65;;;;;;;3.25;83.13;99797.50;5052553;28;20091;-51
2022/04/14 02:20:48;;;;;;;6.47;2.85;;;;;;;3.26;82.71;99812.94;5050265;28;20032;-48
2022/04/14 02:23:14;;;;;;;4.78;2.65;;;;;;;3.21;82.78;99796.66;5051435;28;20049;-49
2022/04/14 02:25:40;;;;;;;4.32;2.20;;;;;;;3.33;82.80;99806.06;5059850;28;20470;-50
2022/04/14 02:28:06;;;;;;;3.17;2.15;;;;;;;3.37;82.49;99811.19;5053870;28;20071;-52
2022/04/14 02:30:33;;;;;;;3.10;1.85;;;;;;;3.41;82.03;99822.28;5052161;28;20060;-48
2022/04/14 02:32:59;;;;;;;2.63;1.70;;;;;;;3.45;82.09;99820.59;5060563;28;20045;-51
2022/04/14 02:35:25;;;;;;;4.55;2.30;;;;;;;3.46;81.92;99820.56;5050322;28;20517;-55
2022/04/14 02:37:51;;;;;;;5.50;2.30;;;;;;;3.33;81.87;99794.06;5049728;28;20127;-53
2022/04/14 02:40:18;;;;;;;5.97;2.08;;;;;;;3.54;81.70;99823.97;5036106;28;20059;-54
2022/04/14 02:42:46;;;;;;;8.30;2.40;;;;;;;3.58;81.09;99830.81;5052601;28;20098;-53
2022/04/14 02:45:12;;;;;;;2.65;1.88;;;;;;;3.66;81.10;99834.22;5054448;28;20036;-53
2022/04/14 02:47:38;;;;;;;6.35;1.65;;;;;;;3.75;80.84;99833.31;5062056;28;20056;-50
2022/04/14 02:50:05;;;;;;;2.63;1.38;;;;;;;3.64;80.64;99812.78;5056619;28;20036;-55
2022/04/14 02:52:31;;;;;;;2.78;1.40;;;;;;;3.91;79.90;99834.94;5064681;28;20523;-53
2022/04/14 02:54:57;;;;;;;2.58;1.40;;;;;;;3.83;79.69;99821.25;5055710;28;20032;-53
2022/04/14 02:57:22;;;;;;;2.00;1.30;;;;;;;3.98;79.13;99833.22;5062617;28;20893;-53
2022/04/14 02:59:48;;;;;;;2.83;1.42;;;;;;;4.15;78.80;99845.09;5047189;28;20052;-51
2022/04/14 03:02:14;;;;;;;4.78;1.60;;;;;;;4.08;78.34;99824.56;5049010;28;20054;-52
2022/04/14 03:04:40;;;;;;;5.55;1.50;;;;;;;4.28;78.08;99847.59;5047193;28;20135;-49
2022/04/14 03:07:05;;;;;;;5.97;1.60;;;;;;;4.33;77.70;99859.59;5049292;28;20052;-49
2022/04/14 03:09:32;;;;;;;4.75;1.40;;;;;;;4.37;77.49;99857.84;5049108;28;20143;-51
2022/04/14 03:11:57;;;;;;;3.45;1.55;;;;;;;4.37;76.96;99845.81;5048670;28;20048;-51
2022/04/14 03:14:23;;;;;;;2.83;1.08;;;;;;;4.39;76.46;99850.97;5048074;28;20049;-50
2022/04/14 03:16:49;;;;;;;6.90;1.30;;;;;;;4.39;76.25;99856.13;5048646;28;20090;-48
2022/04/14 03:19:14;;;;;;;1.38;1.05;;;;;;;4.37;76.06;99847.53;5081292;28;20063;-53
2022/04/14 03:21:40;;;;;;;1.80;1.30;;;;;;;4.36;76.23;99844.09;5081221;28;20493;-50
2022/04/14 03:24:06;;;;;;;5.38;2.13;;;;;;;4.30;75.63;99849.28;5049220;28;20036;-49
2022/04/14 03:26:31;;;;;;;2.70;1.70;;;;;;;4.27;75.98;99857.03;5048863;28;20475;-52
2022/04/14 03:28:57;;;;;;;3.53;1.90;;;;;;;4.24;75.97;99845.03;5049012;28;20040;-49
2022/04/14 03:31:23;;;;;;;2.28;1.65;;;;;;;4.21;75.63;99852.78;5055593;28;20048;-51
2022/04/14 03:33:48;;;;;;;2.53;1.55;;;;;;;4.16;75.95;99856.25;5057311;28;20139;-52
2022/04/14 03:36:14;;;;;;;9.20;2.78;;;;;;;4.09;75.90;99852.00;5052480;28;20045;-50
2022/04/14 03:38:39;;;;;;;5.63;2.20;;;;;;;4.07;75.65;99861.44;5047201;28;20099;-51
2022/04/14 03:41:07;;;;;;;4.75;2.00;;;;;;;4.07;75.80;99862.31;5066080;28;20059;-53
2022/04/14 03:43:36;;;;;;;3.30;2.03;;;;;;;4.06;75.66;99864.88;5061550;28;20045;-55
2022/04/14 03:46:03;;;;;;;6.55;2.30;;;;;;;4.02;75.86;99871.78;5048569;28;20094;-49
2022/04/14 03:48:29;;;;;;;4.05;2.38;;;;;;;4.04;76.04;99867.44;5067442;28;20032;-50
2022/04/14 03:50:55;;;;;;;2.08;1.20;;;;;;;3.97;76.05;99847.78;5052660;28;20056;-54
2022/04/14 03:53:21;;;;;;;1.83;1.20;;;;;;;4.05;75.72;99852.88;5066400;28;20062;-50
2022/04/14 03:55:47;;;;;;;3.33;1.83;;;;;;;4.08;75.45;99852.88;5058273;28;20051;-50
2022/04/14 03:58:14;;;;;;;3.10;1.52;;;;;;;4.08;75.41;99850.31;5050095;28;20029;-52
2022/04/14 04:00:43;;;;;;;6.60;1.50;;;;;;;4.26;74.84;99873.34;5047132;28;20060;-51
2022/04/14 04:03:11;;;;;;;3.70;1.73;;;;;;;4.24;74.53;99877.63;5049025;28;20068;-54
2022/04/14 04:05:37;;;;;;;4.78;1.80;;;;;;;4.25;74.72;99874.19;5044356;28;20094;-50
2022/04/14 04:08:04;;;;;;;2.63;1.60;;;;;;;4.25;75.15;99876.78;5059745;28;20032;-50
2022/04/14 04:10:30;;;;;;;1.75;1.45;;;;;;;4.25;74.55;99871.63;5051512;28;20040;-53
2022/04/14 04:12:56;;;;;;;2.28;1.40;;;;;;;4.08;74.68;99843.41;5051556;28;20090;-53
2022/04/14 04:15:22;;;;;;;4.68;1.70;;;;;;;4.25;74.55;99871.63;5050446;28;20041;-51
2022/04/14 04:17:51;;;;;;;2.67;1.80;;;;;;;4.25;74.84;99869.06;5061236;28;20033;-52
2022/04/14 04:20:20;;;;;;;5.20;2.30;;;;;;;4.12;74.19;99857.13;5050071;28;20390;-51
2022/04/14 04:22:46;;;;;;;9.85;2.33;;;;;;;4.20;74.49;99861.34;5063090;28;20517;-50
2022/04/14 04:25:12;;;;;;;3.17;1.73;;;;;;;4.05;74.79;99833.16;5054013;28;20083;-51
2022/04/14 04:27:38;;;;;;;4.70;1.98;;;;;;;4.28;74.60;99868.19;5051053;28;20136;-51
2022/04/14 04:30:06;;;;;;;3.53;1.77;;;;;;;4.31;74.57;99871.59;5046973;28;20110;-50
2022/04/14 04:32:33;;;;;;;2.55;1.67;;;;;;;4.34;74.52;99871.59;5047992;28;20049;-51
2022/04/14 04:35:03;;;;;;;6.10;1.30;;;;;;;4.36;74.00;99864.69;5047503;28;20045;-50
2022/04/14 04:37:29;;;;;;;4.00;1.70;;;;;;;4.39;73.94;99867.28;5061640;28;20044;-50
2022/04/14 04:39:55;;;;;;;9.70;2.10;;;;;;;4.22;73.94;99831.34;5046253;28;20040;-53
2022/04/14 04:42:21;;;;;;;4.85;1.80;;;;;;;4.49;73.51;99868.06;5048287;28;20037;-52
2022/04/14 04:44:47;;;;;;;8.02;3.47;;;;;;;4.55;73.67;99862.88;5047917;28;20428;-53
2022/04/14 04:47:12;;;;;;;3.85;1.70;;;;;;;4.61;73.17;99863.66;5047745;28;20512;-54
2022/04/14 04:49:38;;;;;;;2.22;1.40;;;;;;;4.66;73.04;99858.47;5056480;28;20056;-50
2022/04/14 04:52:04;;;;;;;5.57;1.52;;;;;;;4.72;72.55;99865.28;5063487;28;20534;-50
2022/04/14 04:54:30;;;;;;;7.10;1.63;;;;;;;4.79;72.43;99865.25;5047545;28;20124;-53
2022/04/14 04:56:56;;;;;;;2.65;1.75;;;;;;;4.81;72.28;99858.38;5046084;28;20131;-51
2022/04/14 04:59:21;;;;;;;5.30;1.80;;;;;;;4.81;71.78;99854.94;5045617;28;20045;-50
2022/04/14 05:01:47;;;;;;;4.90;1.60;;;;;;;4.95;71.98;99864.25;5054226;28;20067;-49
2022/04/14 05:04:13;;;;;;;4.93;1.80;;;;;;;5.06;71.63;99872.75;5055190;28;20581;-56
2022/04/14 05:06:38;;;;;;;6.72;1.67;;;;;;;5.13;70.71;99876.09;5049658;28;20063;-55
2022/04/14 05:09:04;;;;;;;1.77;1.10;;;;;;;5.18;70.30;99871.78;5053850;28;20064;-49
2022/04/14 05:11:30;;;;;;;8.05;2.03;;;;;;;5.15;70.29;99858.91;5048821;28;20079;-49
2022/04/14 05:13:56;;;;;;;3.58;1.90;;;;;;;5.32;70.48;99866.47;5047811;28;20121;-50
2022/04/14 05:16:22;;;;;;;10.95;2.38;;;;;;;5.38;69.34;99869.84;5046902;28;20041;-50
2022/04/14 05:18:48;;;;;;;9.30;1.85;;;;;;;5.44;69.09;99862.03;5047145;28;20041;-51
2022/04/14 05:21:14;;;;;;;8.30;1.10;;;;;;;5.49;68.80;99867.16;5046920;28;20048;-52
2022/04/14 05:23:40;;;;;;;7.50;1.40;;;;;;;5.61;68.82;99873.88;5049380;28;20107;-49
2022/04/14 05:26:06;;;;;;;4.53;1.35;;;;;;;5.70;67.64;99864.34;5050731;28;20075;-53
2022/04/14 05:28:32;;;;;;;11.25;1.30;;;;;;;5.76;67.68;99866.81;5049359;28;20059;-51
2022/04/14 05:30:57;;;;;;;3.97;1.02;;;;;;;5.78;66.88;99859.94;5055337;28;20041;-50
2022/04/14 05:33:23;;;;;;;12.68;1.40;;;;;;;5.85;66.52;99873.63;5050256;28;20567;-51
2022/04/14 05:35:49;;;;;;;7.07;1.15;;;;;;;5.92;66.13;99868.38;5050459;28;20033;-56
2022/04/14 05:38:15;;;;;;;3.25;1.20;;;;;;;6.00;65.75;99870.00;5049469;28;20045;-50
2022/04/14 05:40:43;;;;;;;3.97;1.30;;;;;;;6.08;65.34;99873.34;5040201;28;20041;-51
2022/04/14 05:43:19;;;;;;;2.15;1.17;;;;;;;6.17;64.98;99857.75;5049152;28;20041;-51
2022/04/14 05:45:47;;;;;;;4.97;1.30;;;;;;;6.22;64.47;99863.69;5048968;28;20040;-49
2022/04/14 05:48:14;;;;;;;2.97;1.20;;;;;;;6.28;64.51;99876.53;5049144;28;20074;-53
2022/04/14 05:50:41;;;;;;;2.35;1.30;;;;;;;6.35;64.28;99873.81;5049839;28;20033;-45
2022/04/14 05:53:07;;;;;;;3.08;1.00;;;;;;;6.47;63.73;99872.78;5050877;28;20048;-48
2022/04/14 05:55:32;;;;;;;4.82;1.02;;;;;;;6.49;63.49;99857.28;5049190;28;20044;-49
2022/04/14 05:57:58;;;;;;;5.50;1.52;;;;;;;6.72;62.81;99874.13;5047689;28;20467;-53
2022/04/14 06:00:24;;;;;;;7.07;1.13;;;;;;;6.88;62.67;99885.06;5052503;28;20554;-49
2022/04/14 06:02:50;;;;;;;5.93;1.25;;;;;;;6.97;62.45;99869.41;5054734;28;20055;-42
2022/04/14 06:05:15;;;;;;;3.92;0.90;;;;;;;7.21;61.95;99878.50;5050183;28;20064;-43
2022/04/14 06:07:41;;;;;;;1.77;1.00;;;;;;;7.51;60.80;99870.16;5049251;28;20037;-44
2022/04/14 06:10:07;;;;;;;5.30;1.00;;;;;;;8.37;59.15;99888.25;5049995;28;20094;-42
2022/04/14 06:12:33;;;;;;;9.10;1.40;;;;;;;9.32;56.91;99884.22;5048358;28;20127;-43
2022/04/14 06:14:58;;;;;;;5.47;1.00;;;;;;;10.48;53.18;99885.25;5049221;28;20063;-42
2022/04/14 06:17:24;;;;;;;7.95;1.08;;;;;;;11.52;50.36;99889.63;5058441;28;20059;-44
2022/04/14 06:19:50;;;;;;;6.20;1.10;;;;;;;12.47;47.42;99867.88;5056531;28;20036;-44
2022/04/14 06:22:15;;;;;;;6.55;1.10;;;;;;;13.56;45.50;99883.38;5047215;28;20570;-44
2022/04/14 06:24:41;;;;;;;1.92;1.00;;;;;;;14.57;42.82;99885.75;5048921;28;20037;-47
2022/04/14 06:27:07;;;;;;;8.48;1.58;;;;;;;15.63;40.67;99877.00;5049111;28;20068;-46
2022/04/14 06:29:33;;;;;;;7.80;1.40;;;;;;;16.65;38.61;99882.84;5031159;28;20045;-45
2022/04/14 06:31:58;;;;;;;11.55;1.30;;;;;;;17.51;36.61;99884.84;5049865;28;20874;-48
2022/04/14 06:34:24;;;;;;;7.47;1.23;;;;;;;18.25;34.77;99866.28;5047704;28;20107;-45
2022/04/14 06:36:50;;;;;;;5.88;0.93;;;;;;;19.15;32.66;99890.28;5049520;28;20041;-45
2022/04/14 06:39:15;;;;;;;4.05;1.08;;;;;;;19.91;31.32;99889.53;5047581;28;20424;-44
2022/04/14 06:41:41;;;;;;;3.58;1.60;;;;;;;20.68;29.93;99889.28;5047759;28;20040;-43
2022/04/14 06:44:10;;;;;;;16.33;1.90;;;;;;;21.25;28.82;99878.06;5017358;28;20143;-43
2022/04/14 06:46:36;;;;;;;4.75;2.30;;;;;;;21.86;27.48;99864.47;5068330;28;20556;-42
2022/04/14 06:49:03;;;;;;;9.15;2.65;;;;;;;22.49;26.46;99878.06;5050037;28;20052;-47
2022/04/14 06:51:29;;;;;;;6.80;3.65;;;;;;;23.14;25.86;99872.69;5063299;28;20131;-40
2022/04/14 06:53:55;;;;;;;10.23;1.90;;;;;;;23.81;24.74;99875.84;5052402;28;20064;-40
2022/04/14 06:56:20;;;;;;;9.73;2.13;;;;;;;24.37;23.46;99881.53;5074983;28;20143;-38
2022/04/14 06:58:46;;;;;;;3.00;1.38;;;;;;;24.73;22.75;99873.91;5038047;28;20508;-41
2022/04/14 07:01:12;;;;;;;7.00;1.67;;;;;;;25.29;22.31;99879.41;5045312;28;20040;-40
2022/04/14 07:03:37;;;;;;;7.68;1.55;;;;;;;25.94;21.68;99880.44;5050240;28;20047;-40
2022/04/14 07:06:03;;;;;;;7.90;3.38;;;;;;;26.54;21.26;99881.69;5048111;28;20041;-40
2022/04/14 07:08:32;;;;;;;5.25;2.13;;;;;;;27.00;20.34;99882.56;5083780;28;20089;-40
2022/04/14 07:10:59;;;;;;;5.65;2.00;;;;;;;27.49;19.88;99879.28;5069320;28;20033;-40
2022/04/14 07:13:25;;;;;;;7.85;2.30;;;;;;;27.75;18.92;99869.47;5068135;28;20148;-40
2022/04/14 07:15:51;;;;;;;14.13;1.73;;;;;;;28.10;18.65;99870.34;5069113;28;20522;-42
2022/04/14 07:18:16;;;;;;;8.90;2.10;;;;;;;28.44;18.25;99870.34;5067235;28;20036;-40
2022/04/14 07:20:44;;;;;;;4.40;1.90;;;;;;;28.83;17.65;99871.47;5068510;28;20428;-41
2022/04/14 07:23:11;;;;;;;4.15;1.33;;;;;;;29.26;17.19;99873.00;5069113;28;20037;-39
2022/04/14 07:25:37;;;;;;;7.88;1.60;;;;;;;29.69;17.06;99869.13;5067744;28;20055;-40
2022/04/14 07:28:03;;;;;;;1.65;1.00;;;;;;;29.94;15.93;99856.53;5067761;28;20044;-41
2022/04/14 07:30:28;;;;;;;3.92;1.30;;;;;;;30.08;15.88;99847.78;5068496;28;20557;-41
2022/04/14 07:32:55;;;;;;;2.00;1.40;;;;;;;30.32;16.15;99844.16;5052136;28;20519;-39
2022/04/14 07:35:22;;;;;;;11.23;2.03;;;;;;;30.60;15.65;99850.75;5048742;28;20060;-39
2022/04/14 07:37:49;;;;;;;6.13;1.75;;;;;;;30.72;15.46;99851.19;5048159;28;20047;-40
2022/04/14 07:40:15;;;;;;;4.47;1.70;;;;;;;31.13;15.04;99841.84;5061372;28;20045;-40
2022/04/14 07:42:43;;;;;;;10.02;2.10;;;;;;;31.36;14.88;99847.16;5079763;28;20519;-40
2022/04/14 07:45:10;;;;;;;15.00;1.60;;;;;;;31.27;14.85;99833.97;5045767;28;20907;-41
2022/04/14 07:47:37;;;;;;;3.58;1.38;;;;;;;31.24;14.88;99839.72;5047929;28;20053;-40
2022/04/14 07:50:03;;;;;;;2.78;1.33;;;;;;;31.46;14.81;99839.66;5046669;28;20029;-41
2022/04/14 07:52:29;;;;;;;8.68;1.83;;;;;;;31.43;14.46;99837.34;5047406;28;20049;-40
2022/04/14 07:54:55;;;;;;;4.22;1.67;;;;;;;31.65;14.36;99842.88;5046528;28;20029;-41
2022/04/14 07:57:20;;;;;;;7.95;1.63;;;;;;;31.80;14.10;99844.56;5079548;28;20041;-40
2022/04/14 07:59:46;;;;;;;5.72;1.40;;;;;;;31.81;14.10;99827.41;5045267;28;20052;-41
2022/04/14 08:02:12;;;;;;;5.45;1.63;;;;;;;31.79;14.13;99826.75;5045820;28;20040;-41
2022/04/14 08:04:38;;;;;;;6.38;2.30;;;;;;;31.93;14.16;99841.19;5045523;28;20060;-40
2022/04/14 08:07:04;;;;;;;4.30;1.45;;;;;;;32.14;14.02;99845.84;5046370;28;20122;-42
2022/04/14 08:09:31;;;;;;;13.50;1.73;;;;;;;32.27;13.52;99851.41;5047611;28;20041;-42
2022/04/14 08:11:56;;;;;;;3.20;1.40;;;;;;;32.37;13.62;99836.66;5046187;28;20559;-41
2022/04/14 08:14:22;;;;;;;2.90;1.48;;;;;;;32.30;13.71;99841.09;5045500;28;20092;-39
2022/04/14 08:16:48;;;;;;;4.78;1.35;;;;;;;32.48;13.48;99845.25;5047353;28;20133;-41
2022/04/14 08:19:14;;;;;;;2.53;1.38;;;;;;;32.67;13.09;99839.28;5046530;28;20550;-42
2022/04/14 08:21:39;;;;;;;3.80;1.20;;;;;;;32.50;13.21;99835.13;5062267;28;20056;-40
2022/04/14 08:24:06;;;;;;;6.28;1.10;;;;;;;32.56;12.88;99837.88;5045587;28;20040;-41
2022/04/14 08:26:32;;;;;;;6.10;1.38;;;;;;;32.53;13.16;99837.44;5053498;28;20480;-40
2022/04/14 08:28:59;;;;;;;8.27;1.77;;;;;;;32.41;13.20;99841.63;5046105;28;20079;-40
2022/04/14 08:31:26;;;;;;;5.35;1.50;;;;;;;32.35;13.08;99827.91;5045239;28;20132;-41
2022/04/14 08:33:52;;;;;;;3.00;1.08;;;;;;;32.40;13.11;99821.16;5080414;28;20037;-40
2022/04/14 08:36:17;;;;;;;7.00;1.20;;;;;;;32.63;12.72;99830.72;5030489;28;20424;-43
2022/04/14 08:38:45;;;;;;;4.00;1.30;;;;;;;32.73;12.76;99823.19;5044218;28;20485;-40
2022/04/14 08:41:13;;;;;;;5.47;1.20;;;;;;;32.74;12.81;99818.66;5046775;28;20604;-40
2022/04/14 08:43:47;;;;;;;5.32;1.40;;;;;;;32.75;12.66;99817.63;5045995;28;20041;-41
2022/04/14 08:46:14;;;;;;;3.05;1.00;;;;;;;32.89;12.39;99810.50;5058182;28;20037;-41
2022/04/14 08:48:40;;;;;;;5.90;2.15;;;;;;;32.97;12.58;99811.22;5027780;28;20041;-41
2022/04/14 08:51:07;;;;;;;2.65;1.20;;;;;;;32.99;12.38;99808.31;5046572;28;20135;-40
2022/04/14 08:53:35;;;;;;;3.88;1.10;;;;;;;33.16;12.30;99813.25;5061229;28;20440;-41
2022/04/14 08:56:01;;;;;;;2.30;1.27;;;;;;;33.46;12.16;99804.97;5045987;28;20075;-40
2022/04/14 08:58:27;;;;;;;40.88;2.67;;;;;;;33.56;11.93;99803.59;5039807;28;20143;-41
2022/04/14 09:00:57;;;;;;;2.83;1.33;;;;;;;33.65;11.81;99804.28;5050219;28;20048;-40
2022/04/14 09:03:27;;;;;;;21.10;1.98;;;;;;;33.52;11.87;99804.19;5050095;28;20044;-42
2022/04/14 09:05:55;;;;;;;5.32;1.35;;;;;;;33.63;11.86;99801.78;5060770;28;20041;-41
2022/04/14 09:08:25;;;;;;;2.33;1.13;;;;;;;33.92;11.72;99792.59;5065182;28;20048;-42
2022/04/14 09:10:51;;;;;;;12.95;1.83;;;;;;;34.23;11.73;99797.53;5050419;28;20041;-41
2022/04/14 09:13:18;;;;;;;6.93;2.08;;;;;;;34.34;11.64;99794.25;5048537;28;20044;-40
2022/04/14 09:15:44;;;;;;;2.88;1.13;;;;;;;34.53;11.31;99798.06;5049476;28;20052;-40
2022/04/14 09:18:10;;;;;;;3.50;1.48;;;;;;;34.61;11.40;99787.03;5063278;28;20048;-42
2022/04/14 09:20:37;;;;;;;6.75;1.42;;;;;;;34.43;11.42;99794.91;5050405;28;20591;-42
2022/04/14 09:23:20;;;;;;;5.20;1.70;;;;;;;34.63;11.35;99784.16;5047980;28;20139;-41
2022/04/14 09:26:23;;;;;;;7.60;1.55;;;;;;;34.95;11.44;99782.56;5048572;28;20091;-40
2022/04/14 09:29:10;;;;;;;5.88;1.60;;;;;;;34.87;10.97;99788.97;5049056;28;20548;-41
2022/04/14 09:31:51;;;;;;;6.55;1.23;;;;;;;34.78;11.32;99774.84;5049980;28;20098;-40
2022/04/14 09:34:19;;;;;;;12.07;1.60;;;;;;;34.93;11.05;99788.16;5049476;28;20072;-41
2022/04/14 09:37:14;;;;;;;8.60;1.45;;;;;;;34.85;11.36;99775.69;5032977;28;20131;-39
2022/04/14 09:39:56;;;;;;;4.55;1.77;;;;;;;34.98;10.92;99774.00;5032470;28;20114;-43
2022/04/14 09:42:24;;;;;;;8.55;1.83;;;;;;;35.05;10.61;99778.41;5048763;28;20067;-42
2022/04/14 09:44:53;;;;;;;7.97;1.60;;;;;;;35.08;10.95;99777.97;5049936;28;20591;-41
2022/04/14 09:47:41;;;;;;;4.82;1.83;;;;;;;35.05;10.50;99758.63;5049658;28;20041;-41
2022/04/14 09:50:28;;;;;;;4.72;2.10;;;;;;;35.17;10.16;99771.28;5050090;28;20039;-42
2022/04/14 09:53:14;;;;;;;5.13;1.42;;;;;;;35.19;10.35;99779.25;5050272;28;20048;-41
2022/04/14 09:55:55;;;;;;;3.53;1.30;;;;;;;35.10;10.84;99781.31;5032773;28;20076;-42
2022/04/14 09:58:22;;;;;;;3.38;1.27;;;;;;;35.02;10.17;99777.97;5047820;28;20111;-43
2022/04/14 10:00:53;;;;;;;46.47;2.97;;;;;;;34.90;10.24;99763.44;5048926;28;20063;-45
2022/04/14 10:03:29;;;;;;;4.65;1.38;;;;;;;34.93;10.49;99771.09;5040940;28;20048;-41
2022/04/14 10:05:57;;;;;;;5.47;1.45;;;;;;;34.82;10.98;99773.38;5047868;28;20040;-44
2022/04/14 10:08:24;;;;;;;8.02;1.30;;;;;;;34.77;10.46;99775.88;5046316;28;20041;-43
2022/04/14 10:11:06;;;;;;;2.50;1.40;;;;;;;34.58;10.74;99775.84;5082340;28;20079;-40
2022/04/14 10:13:36;;;;;;;7.35;1.48;;;;;;;34.61;10.55;99753.81;5080656;28;20036;-41
2022/04/14 10:16:02;;;;;;;6.03;2.13;;;;;;;34.95;10.75;99756.34;5049548;28;20431;-40
2022/04/14 10:18:28;;;;;;;5.95;1.40;;;;;;;35.11;10.42;99753.22;5049652;28;20037;-41
2022/04/14 10:20:53;;;;;;;7.72;1.42;;;;;;;35.25;10.40;99764.88;5048619;28;20045;-42
2022/04/14 10:23:20;;;;;;;11.50;1.85;;;;;;;35.14;10.11;99754.69;5064494;28;20041;-42
2022/04/14 10:25:46;;;;;;;6.88;1.60;;;;;;;35.01;10.23;99770.91;5050166;28;20036;-41
2022/04/14 10:28:15;;;;;;;13.57;1.90;;;;;;;34.73;10.34;99769.25;5027737;28;20132;-46
2022/04/14 10:30:45;;;;;;;9.07;1.65;;;;;;;34.68;10.24;99757.34;5038969;28;20530;-40
2022/04/14 10:33:12;;;;;;;3.95;1.52;;;;;;;34.70;10.44;99761.53;5080898;28;20040;-42
2022/04/14 10:35:37;;;;;;;3.97;1.40;;;;;;;34.78;10.60;99757.81;5081697;28;20098;-41
2022/04/14 10:38:20;;;;;;;1.90;1.48;;;;;;;34.88;10.48;99769.03;5048957;28;20040;-41
2022/04/14 10:40:48;;;;;;;6.32;1.65;;;;;;;34.61;11.02;99748.41;5029448;28;20143;-40
2022/04/14 10:43:18;;;;;;;1.48;1.08;;;;;;;34.55;10.59;99743.81;5046968;28;20098;-41
2022/04/14 10:45:55;;;;;;;4.60;1.55;;;;;;;34.45;10.92;99753.16;5042854;28;20045;-42
2022/04/14 10:48:32;;;;;;;7.50;1.45;;;;;;;34.53;10.54;99743.22;5027035;28;20044;-41
2022/04/14 10:51:23;;;;;;;4.38;1.40;;;;;;;34.58;10.78;99746.13;5046537;28;20150;-41
2022/04/14 10:53:55;;;;;;;2.15;1.40;;;;;;;34.58;10.61;99743.41;5048611;28;20504;-41
2022/04/14 10:56:44;;;;;;;2.80;1.20;;;;;;;34.67;10.79;99745.72;5047824;28;20520;-40
2022/04/14 10:59:12;;;;;;;5.20;1.75;;;;;;;34.78;11.21;99734.31;5046059;28;20037;-41
2022/04/14 11:01:50;;;;;;;1.30;1.15;;;;;;;34.45;10.93;99723.47;5048075;28;20489;-43
2022/04/14 11:04:42;;;;;;;3.88;1.10;;;;;;;34.40;10.97;99727.81;5059624;28;20040;-40
2022/04/14 11:07:16;;;;;;;8.93;1.50;;;;;;;34.57;10.83;99728.25;5040623;28;20410;-42
2022/04/14 11:09:46;;;;;;;5.20;1.25;;;;;;;34.60;10.52;99722.44;5026953;28;20131;-40
2022/04/14 11:12:40;;;;;;;8.57;1.50;;;;;;;34.60;11.07;99711.66;5046598;28;20797;-41
2022/04/14 11:15:08;;;;;;;6.03;1.30;;;;;;;34.60;10.30;99708.94;5080350;28;20040;-40
2022/04/14 11:18:07;;;;;;;;;;;;;;;34.52;10.45;99715.38;5046234;28;20500;-40
2022/04/14 11:20:38;;;;;;;9.35;1.33;;;;;;;34.49;10.57;99704.16;5047292;28;19927;-42
2022/04/14 11:23:07;;;;;;;;;;;;;;;34.49;10.85;99707.69;5059434;28;20037;-40
2022/04/14 11:25:49;;;;;;;2.40;1.25;;;;;;;34.41;10.79;99713.28;5046889;28;19966;-41
2022/04/14 11:28:19;;;;;;;1.92;1.23;;;;;;;34.53;10.79;99705.41;5034682;28;20505;-40
2022/04/14 11:30:46;;;;;;;9.10;1.40;;;;;;;34.30;10.74;99701.22;5044236;28;20049;-41
2022/04/14 11:33:32;;;;;;;7.43;2.58;;;;;;;34.17;10.53;99679.56;5046742;28;20041;-42
2022/04/14 11:36:22;;;;;;;4.97;1.57;;;;;;;34.37;10.89;99696.66;5049210;28;20516;-41
2022/04/14 11:38:59;;;;;;;4.63;2.30;;;;;;;34.09;11.03;99684.31;5026956;28;20044;-41
2022/04/14 11:41:44;;;;;;;2.92;1.50;;;;;;;33.85;11.11;99689.25;5062858;28;20036;-41
2022/04/14 11:44:17;;;;;;;4.20;1.80;;;;;;;33.96;11.25;99696.75;5078734;28;20040;-43